createdAt,value
2023-05-21T00:00:14.525Z,49.83
2023-05-21T00:02:43.048Z,49.18
2023-05-21T00:05:14.799Z,50.01
2023-05-21T00:07:43.062Z,49.97
2023-05-21T00:10:11.695Z,49.69
2023-05-21T00:12:41.821Z,50.17
2023-05-21T00:15:11.004Z,50.44
2023-05-21T00:17:40.085Z,50.38
2023-05-21T00:20:09.970Z,50.69
2023-05-21T00:22:37.771Z,50.18
2023-05-21T00:25:06.478Z,50.68
2023-05-21T00:27:34.272Z,50.73
2023-05-21T00:30:04.275Z,50.61
2023-05-21T00:32:32.123Z,50.60
2023-05-21T00:34:59.988Z,50.81
2023-05-21T00:37:29.842Z,50.07
2023-05-21T00:39:58.463Z,50.47
2023-05-21T00:42:27.399Z,50.69
2023-05-21T00:44:55.568Z,50.59
2023-05-21T00:47:26.961Z,50.15
2023-05-21T00:49:55.728Z,50.26
2023-05-21T00:52:26.793Z,50.76
2023-05-21T00:54:55.055Z,50.40
2023-05-21T00:57:27.133Z,50.27
2023-05-21T00:59:55.277Z,50.62
2023-05-21T01:02:26.168Z,50.13
2023-05-21T01:04:55.813Z,50.98
2023-05-21T01:07:23.626Z,50.62
2023-05-21T01:09:51.445Z,50.73
2023-05-21T01:12:20.626Z,50.71
2023-05-21T01:14:49.253Z,50.56
2023-05-21T01:17:17.752Z,51.33
2023-05-21T01:19:48.608Z,50.73
2023-05-21T01:22:18.815Z,51.16
2023-05-21T01:24:51.352Z,51.10
2023-05-21T01:27:20.012Z,50.87
2023-05-21T01:29:47.835Z,50.79
2023-05-21T01:32:22.186Z,51.20
2023-05-21T01:35:00.871Z,51.08
2023-05-21T01:37:35.392Z,51.33
2023-05-21T01:40:11.974Z,51.42
2023-05-21T01:42:44.626Z,51.69
2023-05-21T01:45:15.348Z,51.29
2023-05-21T01:47:46.279Z,51.21
2023-05-21T01:50:15.446Z,51.00
2023-05-21T01:52:50.988Z,51.08
2023-05-21T01:55:24.550Z,51.88
2023-05-21T01:57:53.956Z,51.67
2023-05-21T02:00:22.829Z,51.45
2023-05-21T02:02:50.862Z,51.88
2023-05-21T02:05:19.006Z,52.05
2023-05-21T02:07:47.330Z,51.32
2023-05-21T02:10:15.975Z,51.60
2023-05-21T02:12:45.307Z,52.03
2023-05-21T02:15:14.336Z,51.70
2023-05-21T02:17:42.580Z,51.96
2023-05-21T02:20:13.926Z,51.61
2023-05-21T02:22:42.923Z,51.60
2023-05-21T02:25:11.939Z,51.48
2023-05-21T02:27:40.706Z,51.73
2023-05-21T02:30:12.446Z,51.38
2023-05-21T02:32:42.730Z,51.76
2023-05-21T02:35:11.923Z,51.51
2023-05-21T02:37:41.292Z,51.46
2023-05-21T02:40:10.779Z,52.07
2023-05-21T02:42:40.457Z,51.94
2023-05-21T02:45:12.966Z,51.90
2023-05-21T02:47:43.347Z,52.44
2023-05-21T02:50:11.350Z,52.40
2023-05-21T02:52:45.633Z,52.48
2023-05-21T02:55:13.568Z,52.13
2023-05-21T02:57:41.506Z,52.63
2023-05-21T03:00:11.489Z,52.63
2023-05-21T03:02:42.256Z,52.64
2023-05-21T03:05:11.222Z,52.51
2023-05-21T03:07:39.011Z,52.83
2023-05-21T03:10:08.224Z,53.02
2023-05-21T03:12:36.498Z,53.06
2023-05-21T03:15:04.803Z,52.60
2023-05-21T03:17:32.751Z,52.82
2023-05-21T03:20:02.096Z,53.39
2023-05-21T03:22:30.130Z,53.60
2023-05-21T03:24:58.377Z,53.70
2023-05-21T03:27:27.042Z,54.09
2023-05-21T03:29:56.137Z,53.61
2023-05-21T03:32:24.644Z,53.44
2023-05-21T03:34:53.762Z,53.55
2023-05-21T03:37:23.017Z,53.50
2023-05-21T03:39:50.866Z,53.39
2023-05-21T03:42:19.007Z,53.64
2023-05-21T03:44:51.286Z,53.83
2023-05-21T03:47:48.904Z,53.40
2023-05-21T03:50:17.585Z,53.11
2023-05-21T03:52:46.825Z,53.06
2023-05-21T03:55:14.579Z,52.92
2023-05-21T03:57:42.588Z,53.00
2023-05-21T04:00:11.152Z,53.58
2023-05-21T04:02:45.090Z,53.70
2023-05-21T04:05:16.646Z,53.74
2023-05-21T04:07:46.535Z,53.54
2023-05-21T04:10:15.538Z,53.51
2023-05-21T04:12:43.485Z,53.36
2023-05-21T04:15:12.740Z,53.40
2023-05-21T04:17:40.585Z,53.52
2023-05-21T04:20:09.662Z,53.45
2023-05-21T04:22:38.185Z,54.04
2023-05-21T04:25:08.295Z,53.71
2023-05-21T04:27:38.911Z,53.79
2023-05-21T04:30:08.580Z,53.49
2023-05-21T04:32:38.629Z,53.91
2023-05-21T04:35:10.106Z,54.26
2023-05-21T04:37:42.049Z,53.93
2023-05-21T04:40:12.359Z,53.79
2023-05-21T04:42:41.282Z,54.32
2023-05-21T04:45:11.332Z,53.69
2023-05-21T04:47:41.687Z,53.95
2023-05-21T04:50:11.966Z,54.62
2023-05-21T04:52:40.502Z,54.24
2023-05-21T04:55:09.208Z,54.09
2023-05-21T04:57:38.598Z,54.14
2023-05-21T05:00:08.728Z,54.08
2023-05-21T05:02:41.760Z,54.19
2023-05-21T05:05:10.272Z,53.93
2023-05-21T05:07:38.609Z,54.30
2023-05-21T05:10:07.582Z,54.14
2023-05-21T05:12:35.441Z,53.94
2023-05-21T05:15:05.890Z,54.25
2023-05-21T05:17:35.585Z,54.19
2023-05-21T05:20:04.223Z,54.62
2023-05-21T05:22:32.099Z,54.64
2023-05-21T05:24:59.914Z,54.68
2023-05-21T05:27:27.790Z,54.13
2023-05-21T05:29:56.739Z,54.29
2023-05-21T05:32:26.139Z,54.47
2023-05-21T05:34:54.073Z,54.46
2023-05-21T05:37:21.914Z,54.82
2023-05-21T05:39:50.311Z,54.80
2023-05-21T05:42:18.130Z,54.73
2023-05-21T05:44:46.644Z,54.85
2023-05-21T05:47:14.529Z,54.49
2023-05-21T05:49:43.721Z,54.75
2023-05-21T05:52:11.991Z,55.00
2023-05-21T05:54:39.929Z,54.53
2023-05-21T05:57:07.766Z,54.62
2023-05-21T05:59:36.763Z,54.47
2023-05-21T06:02:06.265Z,54.22
2023-05-21T06:04:34.353Z,54.21
2023-05-21T06:07:03.577Z,53.66
2023-05-21T06:09:31.423Z,53.91
2023-05-21T06:11:59.282Z,53.45
2023-05-21T06:14:27.172Z,53.74
2023-05-21T06:16:55.547Z,54.14
2023-05-21T06:19:23.539Z,54.18
2023-05-21T06:21:51.557Z,53.96
2023-05-21T06:24:22.205Z,54.51
2023-05-21T06:26:50.025Z,54.45
2023-05-21T06:29:18.178Z,54.52
2023-05-21T06:31:47.727Z,55.14
2023-05-21T06:34:15.740Z,55.21
2023-05-21T06:36:43.567Z,55.07
2023-05-21T06:39:11.639Z,55.26
2023-05-21T06:41:41.072Z,55.24
2023-05-21T06:44:25.354Z,54.85
2023-05-21T06:47:15.053Z,54.84
2023-05-21T06:49:42.939Z,54.96
2023-05-21T06:52:11.267Z,54.71
2023-05-21T06:54:39.652Z,54.29
2023-05-21T06:57:09.772Z,54.52
2023-05-21T06:59:37.597Z,54.58
2023-05-21T07:02:05.796Z,54.47
2023-05-21T07:04:35.277Z,54.42
2023-05-21T07:07:04.635Z,54.39
2023-05-21T07:09:32.912Z,54.20
2023-05-21T07:12:01.277Z,54.24
2023-05-21T07:14:30.492Z,54.77
2023-05-21T07:16:58.954Z,55.09
2023-05-21T07:19:26.948Z,55.26
2023-05-21T07:21:54.891Z,54.78
2023-05-21T07:24:23.565Z,54.34
2023-05-21T07:26:51.425Z,54.71
2023-05-21T07:29:19.283Z,54.47
2023-05-21T07:31:48.866Z,54.60
2023-05-21T07:34:17.295Z,54.88
2023-05-21T07:36:46.428Z,54.78
2023-05-21T07:39:14.335Z,54.21
2023-05-21T07:41:43.516Z,54.41
2023-05-21T07:44:11.585Z,54.49
2023-05-21T07:46:42.778Z,54.43
2023-05-21T07:49:16.759Z,54.74
2023-05-21T07:51:45.966Z,54.30
2023-05-21T07:54:13.907Z,55.13
2023-05-21T07:56:41.964Z,55.14
2023-05-21T07:59:18.164Z,55.04
2023-05-21T08:01:46.913Z,54.68
2023-05-21T08:04:16.251Z,54.79
2023-05-21T08:06:44.419Z,54.18
2023-05-21T08:09:12.299Z,53.81
2023-05-21T08:11:40.144Z,54.33
2023-05-21T08:14:08.403Z,54.76
2023-05-21T08:16:36.829Z,54.29
2023-05-21T08:19:05.191Z,54.11
2023-05-21T08:21:35.024Z,53.89
2023-05-21T08:24:03.357Z,53.95
2023-05-21T08:26:31.285Z,54.32
2023-05-21T08:28:59.233Z,54.15
2023-05-21T08:31:27.349Z,54.51
2023-05-21T08:33:56.590Z,53.79
2023-05-21T08:36:37.489Z,53.61
2023-05-21T08:39:12.935Z,53.52
2023-05-21T08:41:49.638Z,53.67
2023-05-21T08:44:22.458Z,54.29
2023-05-21T08:46:51.788Z,52.98
2023-05-21T08:49:25.742Z,53.08
2023-05-21T08:52:00.609Z,53.37
2023-05-21T08:54:28.911Z,52.93
2023-05-21T08:56:59.181Z,52.82
2023-05-21T08:59:28.179Z,52.95
2023-05-21T09:01:57.767Z,52.42
2023-05-21T09:04:33.863Z,52.94
2023-05-21T09:07:03.836Z,52.80
2023-05-21T09:09:56.059Z,52.65
2023-05-21T09:12:24.597Z,52.66
2023-05-21T09:14:53.128Z,52.81
2023-05-21T09:17:26.529Z,52.45
2023-05-21T09:20:12.431Z,53.01
2023-05-21T09:22:46.450Z,53.08
2023-05-21T09:25:16.390Z,53.25
2023-05-21T09:27:44.485Z,52.35
2023-05-21T09:30:13.752Z,52.00
2023-05-21T09:32:43.191Z,52.19
2023-05-21T09:35:12.556Z,51.52
2023-05-21T09:37:41.054Z,51.49
2023-05-21T09:40:17.232Z,51.50
2023-05-21T09:42:48.309Z,51.08
2023-05-21T09:45:19.700Z,51.57
2023-05-21T09:47:49.014Z,52.10
2023-05-21T09:50:21.394Z,51.75
2023-05-21T09:52:50.422Z,51.58
2023-05-21T09:55:23.016Z,50.95
2023-05-21T09:57:51.465Z,51.35
2023-05-21T10:00:21.221Z,51.52
2023-05-21T10:02:50.768Z,50.92
2023-05-21T10:05:18.863Z,51.43
2023-05-21T10:07:51.465Z,51.27
2023-05-21T10:10:22.773Z,51.34
2023-05-21T10:12:56.059Z,51.99
2023-05-21T10:15:25.868Z,51.19
2023-05-21T10:17:56.736Z,50.91
2023-05-21T10:20:25.288Z,50.53
2023-05-21T10:22:54.017Z,50.52
2023-05-21T10:25:24.685Z,50.91
2023-05-21T10:27:53.063Z,50.25
2023-05-21T10:30:23.162Z,50.29
2023-05-21T10:32:51.491Z,50.21
2023-05-21T10:35:20.147Z,50.45
2023-05-21T10:37:48.034Z,50.96
2023-05-21T10:40:16.259Z,51.49
2023-05-21T10:43:07.415Z,50.57
2023-05-21T10:45:48.721Z,50.23
2023-05-21T10:48:31.716Z,49.53
2023-05-21T10:51:20.092Z,50.39
2023-05-21T10:54:18.782Z,50.72
2023-05-21T10:56:54.091Z,50.75
2023-05-21T10:59:36.763Z,50.91
2023-05-21T11:02:07.031Z,51.28
2023-05-21T11:04:39.956Z,51.29
2023-05-21T11:07:08.305Z,51.64
2023-05-21T11:09:36.448Z,50.86
2023-05-21T11:12:05.065Z,51.04
2023-05-21T11:14:39.711Z,51.78
2023-05-21T11:17:13.665Z,52.57
2023-05-21T11:19:43.358Z,52.48
2023-05-21T11:22:22.432Z,52.10
2023-05-21T11:24:51.722Z,51.99
2023-05-21T11:27:35.245Z,51.77
2023-05-21T11:30:08.014Z,52.51
2023-05-21T11:32:39.849Z,52.03
2023-05-21T11:35:08.944Z,52.51
2023-05-21T11:37:40.678Z,52.97
2023-05-21T11:40:32.520Z,52.75
2023-05-21T11:43:00.439Z,51.81
2023-05-21T11:45:32.377Z,51.63
2023-05-21T11:48:01.133Z,52.29
2023-05-21T11:50:30.873Z,52.25
2023-05-21T11:53:00.909Z,51.48
2023-05-21T11:55:28.957Z,51.92
2023-05-21T11:57:56.744Z,51.74
2023-05-21T12:00:24.699Z,51.33
2023-05-21T12:02:56.247Z,51.41
2023-05-21T12:05:25.052Z,51.47
2023-05-21T12:07:54.644Z,52.30
2023-05-21T12:10:24.222Z,51.21
2023-05-21T12:12:56.317Z,51.33
2023-05-21T12:15:27.188Z,51.10
2023-05-21T12:17:57.867Z,51.55
2023-05-21T12:20:28.190Z,51.55
2023-05-21T12:22:58.868Z,51.75
2023-05-21T12:25:27.432Z,52.64
2023-05-21T12:27:58.316Z,52.54
2023-05-21T12:30:26.861Z,52.18
2023-05-21T12:32:54.805Z,52.13
2023-05-21T12:35:25.113Z,52.08
2023-05-21T12:37:53.431Z,52.32
2023-05-21T12:40:22.481Z,52.61
2023-05-21T12:42:51.739Z,51.50
2023-05-21T12:45:22.188Z,51.94
2023-05-21T12:47:56.014Z,51.71
2023-05-21T12:50:26.226Z,51.47
2023-05-21T12:52:58.941Z,51.13
2023-05-21T12:55:27.161Z,51.67
2023-05-21T12:58:07.835Z,51.72
2023-05-21T13:00:36.335Z,51.89
2023-05-21T13:03:06.386Z,51.06
2023-05-21T13:05:36.561Z,51.16
2023-05-21T13:08:04.688Z,51.19
2023-05-21T13:10:32.636Z,51.09
2023-05-21T13:13:00.482Z,51.08
2023-05-21T13:15:28.552Z,50.98
2023-05-21T13:17:57.196Z,51.15
2023-05-21T13:20:27.488Z,51.53
2023-05-21T13:22:56.990Z,51.70
2023-05-21T13:25:28.835Z,51.56
2023-05-21T13:27:57.554Z,51.73
2023-05-21T13:30:25.583Z,51.73
2023-05-21T13:32:53.547Z,50.99
2023-05-21T13:35:21.764Z,51.32
2023-05-21T13:37:50.289Z,50.97
2023-05-21T13:40:19.532Z,51.28
2023-05-21T13:42:49.404Z,51.57
2023-05-21T13:45:19.536Z,51.63
2023-05-21T13:47:48.410Z,51.24
2023-05-21T13:50:17.590Z,50.90
2023-05-21T13:52:45.958Z,51.11
2023-05-21T13:55:15.858Z,51.25
2023-05-21T13:57:46.044Z,51.33
2023-05-21T14:00:16.794Z,50.83
2023-05-21T14:02:45.495Z,51.57
2023-05-21T14:05:15.387Z,51.27
2023-05-21T14:07:43.264Z,50.33
2023-05-21T14:10:11.762Z,50.97
2023-05-21T14:12:40.613Z,51.26
2023-05-21T14:15:10.753Z,51.82
2023-05-21T14:17:40.501Z,51.73
2023-05-21T14:20:10.052Z,51.19
2023-05-21T14:22:38.645Z,50.89
2023-05-21T14:25:07.560Z,51.15
2023-05-21T14:27:37.969Z,51.27
2023-05-21T14:30:06.795Z,51.24
2023-05-21T14:32:36.047Z,51.50
2023-05-21T14:35:05.065Z,51.54
2023-05-21T14:37:33.003Z,51.12
2023-05-21T14:40:01.017Z,50.91
2023-05-21T14:42:29.121Z,51.42
2023-05-21T14:47:26.538Z,49.74
2023-05-21T14:49:55.678Z,50.51
2023-05-21T14:52:23.522Z,50.54
2023-05-21T14:54:51.312Z,50.49
2023-05-21T14:57:19.099Z,50.56
2023-05-21T14:59:47.155Z,50.21
2023-05-21T15:02:15.146Z,49.20
2023-05-21T15:04:44.002Z,50.09
2023-05-21T15:07:13.140Z,49.95
2023-05-21T15:09:40.882Z,49.59
2023-05-21T15:12:08.849Z,49.02
2023-05-21T15:14:36.722Z,48.07
2023-05-21T15:17:05.084Z,48.11
2023-05-21T15:19:33.273Z,48.41
2023-05-21T15:22:01.265Z,49.07
2023-05-21T15:24:30.447Z,48.81
2023-05-21T15:26:58.328Z,48.92
2023-05-21T15:29:26.158Z,48.02
2023-05-21T15:31:53.961Z,47.80
2023-05-21T15:34:21.858Z,48.86
2023-05-21T15:36:49.856Z,48.55
2023-05-21T15:39:17.646Z,48.22
2023-05-21T15:41:46.748Z,48.87
2023-05-21T15:44:14.629Z,47.93
2023-05-21T15:46:42.617Z,47.90
2023-05-21T15:49:10.614Z,48.13
2023-05-21T15:51:40.293Z,48.47
2023-05-21T15:54:08.400Z,47.64
2023-05-21T15:56:36.439Z,47.77
2023-05-21T15:59:06.134Z,47.76
2023-05-21T16:01:34.486Z,47.53
2023-05-21T16:04:02.712Z,46.78
2023-05-21T16:06:31.464Z,46.69
2023-05-21T16:08:59.393Z,47.41
2023-05-21T16:11:27.479Z,46.72
2023-05-21T16:13:55.744Z,46.47
2023-05-21T16:16:25.085Z,46.36
2023-05-21T16:18:53.002Z,45.56
2023-05-21T16:21:21.076Z,46.22
2023-05-21T16:23:49.191Z,46.31
2023-05-21T16:26:17.182Z,46.52
2023-05-21T16:28:45.023Z,46.32
2023-05-21T16:31:13.873Z,46.37
2023-05-21T16:33:43.106Z,46.90
2023-05-21T16:36:11.169Z,47.29
2023-05-21T16:38:39.247Z,47.61
2023-05-21T16:41:07.159Z,47.11
2023-05-21T16:43:35.141Z,47.18
2023-05-21T16:46:03.277Z,47.67
2023-05-21T16:48:32.310Z,47.91
2023-05-21T16:51:02.360Z,47.58
2023-05-21T16:53:30.481Z,48.01
2023-05-21T16:55:58.347Z,47.96
2023-05-21T16:58:26.215Z,47.66
2023-05-21T17:00:54.216Z,48.34
2023-05-21T17:03:22.125Z,48.42
2023-05-21T17:05:50.359Z,48.65
2023-05-21T17:08:19.639Z,48.87
2023-05-21T17:10:47.745Z,48.94
2023-05-21T17:13:22.301Z,48.33
2023-05-21T17:15:51.596Z,48.66
2023-05-21T17:18:19.608Z,48.38
2023-05-21T17:20:47.461Z,48.58
2023-05-21T17:23:15.637Z,49.03
2023-05-21T17:25:45.089Z,49.29
2023-05-21T17:28:12.878Z,49.27
2023-05-21T17:30:41.014Z,49.58
2023-05-21T17:33:10.367Z,49.70
2023-05-21T17:35:39.272Z,49.53
2023-05-21T17:38:07.533Z,49.67
2023-05-21T17:40:35.657Z,49.71
2023-05-21T17:43:07.307Z,49.86
2023-05-21T17:45:35.629Z,49.52
2023-05-21T17:48:04.020Z,49.96
2023-05-21T17:50:32.157Z,49.96
2023-05-21T17:53:00.411Z,50.17
2023-05-21T17:55:28.326Z,50.22
2023-05-21T17:57:56.374Z,50.13
2023-05-21T18:00:25.845Z,50.13
2023-05-21T18:02:53.780Z,50.68
2023-05-21T18:05:22.761Z,50.84
2023-05-21T18:07:50.926Z,51.17
2023-05-21T18:10:19.454Z,51.56
2023-05-21T18:12:47.320Z,51.78
2023-05-21T18:15:16.027Z,52.01
2023-05-21T18:17:45.550Z,51.92
2023-05-21T18:20:14.875Z,52.15
2023-05-21T18:22:42.876Z,52.34
2023-05-21T18:25:11.428Z,52.86
2023-05-21T18:27:39.737Z,52.81
2023-05-21T18:30:08.937Z,52.76
2023-05-21T18:32:39.200Z,52.39
2023-05-21T18:35:11.967Z,52.74
2023-05-21T18:37:44.326Z,52.97
2023-05-21T18:40:13.298Z,52.86
2023-05-21T18:42:41.331Z,53.07
2023-05-21T18:45:10.300Z,52.85
2023-05-21T18:47:40.196Z,53.07
2023-05-21T18:50:12.492Z,53.38
2023-05-21T18:52:40.402Z,53.90
2023-05-21T18:55:09.153Z,53.92
2023-05-21T18:57:38.172Z,54.03
2023-05-21T19:00:09.552Z,54.59
2023-05-21T19:02:37.739Z,54.35
2023-05-21T19:05:06.628Z,54.52
2023-05-21T19:07:36.218Z,54.81
2023-05-21T19:10:04.237Z,54.52
2023-05-21T19:12:32.472Z,54.93
2023-05-21T19:15:00.350Z,55.53
2023-05-21T19:17:28.394Z,55.11
2023-05-21T19:19:56.720Z,54.69
2023-05-21T19:22:24.966Z,54.79
2023-05-21T19:24:54.568Z,55.06
2023-05-21T19:27:22.584Z,55.09
2023-05-21T19:29:50.553Z,54.77
2023-05-21T19:32:18.729Z,54.76
2023-05-21T19:34:46.621Z,55.22
2023-05-21T19:37:16.742Z,55.51
2023-05-21T19:39:49.516Z,55.57
2023-05-21T19:42:21.552Z,55.32
2023-05-21T19:44:49.468Z,55.78
2023-05-21T19:47:17.464Z,55.51
2023-05-21T19:49:45.655Z,55.69
2023-05-21T19:52:13.513Z,55.77
2023-05-21T19:54:41.434Z,55.63
2023-05-21T19:57:12.132Z,55.92
2023-05-21T19:59:41.735Z,56.07
2023-05-21T20:02:13.286Z,55.58
2023-05-21T20:04:41.544Z,55.88
2023-05-21T20:07:11.169Z,56.39
2023-05-21T20:09:40.221Z,56.01
2023-05-21T20:12:09.120Z,56.00
2023-05-21T20:14:37.037Z,56.40
2023-05-21T20:17:07.201Z,56.53
2023-05-21T20:19:36.255Z,56.04
2023-05-21T20:22:04.508Z,56.63
2023-05-21T20:24:32.423Z,56.87
2023-05-21T20:27:01.630Z,56.42
2023-05-21T20:29:29.962Z,56.51
2023-05-21T20:31:58.046Z,56.27
2023-05-21T20:34:29.566Z,56.34
2023-05-21T20:36:58.321Z,56.48
2023-05-21T20:39:27.838Z,56.68
2023-05-21T20:41:56.484Z,56.15
2023-05-21T20:44:25.957Z,56.45
2023-05-21T20:46:57.619Z,56.12
2023-05-21T20:49:28.184Z,56.35
2023-05-21T20:51:56.514Z,56.15
2023-05-21T20:54:24.521Z,56.65
2023-05-21T20:56:55.549Z,56.16
2023-05-21T20:59:23.408Z,56.39
2023-05-21T21:01:52.666Z,56.29
2023-05-21T21:04:20.818Z,56.52
2023-05-21T21:06:50.326Z,56.21
2023-05-21T21:09:18.270Z,56.01
2023-05-21T21:11:46.263Z,56.55
2023-05-21T21:14:14.882Z,56.56
2023-05-21T21:16:42.870Z,56.28
2023-05-21T21:19:10.826Z,56.12
2023-05-21T21:21:38.978Z,56.03
2023-05-21T21:24:09.063Z,56.29
2023-05-21T21:26:36.947Z,56.46
2023-05-21T21:29:04.946Z,56.23
2023-05-21T21:31:32.845Z,56.23
2023-05-21T21:34:01.176Z,56.12
2023-05-21T21:36:29.712Z,56.07
2023-05-21T21:38:58.068Z,56.11
2023-05-21T21:41:27.322Z,56.01
2023-05-21T21:43:55.447Z,55.92
2023-05-21T21:46:23.369Z,56.19
2023-05-21T21:48:51.192Z,55.93
2023-05-21T21:51:19.933Z,56.42
2023-05-21T21:53:49.103Z,55.96
2023-05-21T21:56:19.960Z,56.09
2023-05-21T21:58:49.446Z,56.04
2023-05-21T22:01:17.430Z,56.47
2023-05-21T22:03:45.556Z,56.33
2023-05-21T22:06:13.487Z,56.28
2023-05-21T22:08:41.541Z,56.63
2023-05-21T22:11:09.960Z,56.79
2023-05-21T22:13:38.672Z,56.67
2023-05-21T22:16:08.447Z,56.77
2023-05-21T22:18:41.537Z,56.69
2023-05-21T22:21:10.808Z,56.59
2023-05-21T22:23:39.700Z,56.35
2023-05-21T22:26:08.720Z,56.69
2023-05-21T22:28:36.790Z,56.54
2023-05-21T22:31:04.999Z,56.55
2023-05-21T22:33:34.322Z,57.13
2023-05-21T22:36:02.439Z,57.00
2023-05-21T22:38:30.510Z,57.13
2023-05-21T22:40:58.434Z,57.09
2023-05-21T22:43:26.793Z,57.09
2023-05-21T22:45:54.824Z,56.91
2023-05-21T22:48:23.040Z,56.68
2023-05-21T22:50:53.488Z,56.96
2023-05-21T22:53:21.764Z,57.11
2023-05-21T22:55:49.846Z,56.95
2023-05-21T22:58:18.267Z,56.97
2023-05-21T23:00:47.595Z,57.12
2023-05-21T23:03:17.840Z,56.58
2023-05-21T23:05:46.167Z,56.98
2023-05-21T23:08:15.757Z,56.81
2023-05-21T23:10:43.750Z,56.84
2023-05-21T23:13:12.944Z,57.13
2023-05-21T23:15:43.660Z,56.68
2023-05-21T23:18:11.838Z,57.01
2023-05-21T23:20:42.234Z,56.69
2023-05-21T23:23:10.988Z,56.81
2023-05-21T23:25:40.291Z,56.71
2023-05-21T23:28:08.413Z,57.06
2023-05-21T23:30:36.611Z,57.34
2023-05-21T23:33:04.865Z,57.38
2023-05-21T23:35:32.891Z,57.37
2023-05-21T23:38:00.986Z,57.10
2023-05-21T23:40:29.085Z,57.15
2023-05-21T23:42:59.025Z,57.36
2023-05-21T23:45:27.033Z,57.21
2023-05-21T23:47:55.172Z,57.18
2023-05-21T23:50:25.335Z,57.17
2023-05-21T23:52:53.368Z,57.09
2023-05-21T23:55:21.538Z,56.97
2023-05-21T23:57:49.583Z,57.31
